createdAt,value
2018-02-11T00:03:33.143Z,1000.3
2018-02-11T00:13:47.787Z,1000.1
2018-02-11T00:24:03.047Z,999.9
2018-02-11T00:34:17.976Z,999.7
2018-02-11T00:54:48.728Z,999.4
2018-02-11T01:05:02.385Z,999.2
2018-02-11T01:15:16.678Z,998.9
2018-02-11T01:25:30.736Z,998.6
2018-02-11T01:35:44.983Z,998.4
2018-02-11T01:45:59.402Z,998.2
2018-02-11T01:56:13.733Z,998
2018-02-11T02:06:29.292Z,997.7
2018-02-11T02:16:44.882Z,997.2
2018-02-11T02:26:59.664Z,996.8
2018-02-11T02:37:15.193Z,996.7
2018-02-11T02:57:45.820Z,995.8
2018-02-11T03:08:00.837Z,995.2
2018-02-11T03:18:15.129Z,994.9
2018-02-11T03:28:30.750Z,994.7
2018-02-11T03:38:45.383Z,994.4
2018-02-11T03:49:00.563Z,994.2
2018-02-11T03:59:15.765Z,994
2018-02-11T04:09:30.647Z,993.9
2018-02-11T04:19:44.551Z,993.6
2018-02-11T04:29:58.787Z,993.5
2018-02-11T04:40:13.397Z,993.2
2018-02-11T04:50:27.452Z,992.8
2018-02-11T05:00:41.439Z,992.6
2018-02-11T05:10:56.296Z,992.4
2018-02-11T05:21:10.336Z,992.1
2018-02-11T05:41:41.078Z,991.9
2018-02-11T05:51:56.086Z,991.6
2018-02-11T06:02:11.609Z,991.4
2018-02-11T06:12:26.685Z,991.3
2018-02-11T06:22:40.924Z,991.2
2018-02-11T06:32:55.872Z,991.1
2018-02-11T06:43:10.413Z,991.2
2018-02-11T06:53:24.314Z,991.3
2018-02-11T07:03:40.155Z,991.4
2018-02-11T07:13:54.205Z,991.4
2018-02-11T07:24:08.644Z,991.4
2018-02-11T07:34:23.389Z,991.4
2018-02-11T07:44:38.872Z,991.6
2018-02-11T07:54:53.725Z,991.6
2018-02-11T08:05:08.991Z,991.7
2018-02-11T08:15:24.463Z,991.7
2018-02-11T08:25:38.978Z,991.7
2018-02-11T08:35:54.562Z,991.6
2018-02-11T08:46:08.825Z,991.5
2018-02-11T08:56:22.532Z,991.5
2018-02-11T09:16:52.137Z,991.6
2018-02-11T09:27:06.185Z,991.7
2018-02-11T09:37:21.349Z,991.6
2018-02-11T09:47:36.339Z,991.7
2018-02-11T09:57:50.860Z,991.7
2018-02-11T10:08:06.261Z,991.8
2018-02-11T10:18:20.732Z,991.8
2018-02-11T10:28:34.774Z,991.8
2018-02-11T10:38:49.088Z,992
2018-02-11T10:49:04.283Z,991.9
2018-02-11T10:59:18.630Z,992.1
2018-02-11T11:09:33.670Z,992.1
2018-02-11T11:19:48.709Z,991.9
2018-02-11T11:30:03.212Z,992.1
2018-02-11T11:40:17.465Z,992.1
2018-02-11T11:50:32.345Z,992.3
2018-02-11T12:00:46.412Z,992.3
2018-02-11T12:11:01.774Z,992.4
2018-02-11T12:21:17.179Z,992
2018-02-11T12:31:31.411Z,992.1
2018-02-11T12:41:46.207Z,992
2018-02-11T12:52:00.149Z,991.9
2018-02-11T13:02:15.252Z,992.2
2018-02-11T13:12:29.025Z,992.2
2018-02-11T13:22:43.615Z,992.3
2018-02-11T13:32:59.114Z,992.4
2018-02-11T13:43:13.587Z,992.6
2018-02-11T13:53:28.750Z,992.7
2018-02-11T14:03:43.093Z,992.7
2018-02-11T14:13:58.260Z,992.8
2018-02-11T14:24:12.925Z,992.7
2018-02-11T14:34:28.041Z,992.8
2018-02-11T14:44:43.535Z,992.9
2018-02-11T14:54:58.421Z,993
2018-02-11T15:05:12.365Z,993
2018-02-11T15:15:27.166Z,993.2
2018-02-11T15:25:41.463Z,993.3
2018-02-11T15:35:57.022Z,993.4
2018-02-11T15:46:11.404Z,993.3
2018-02-11T15:56:25.752Z,993.4
2018-02-11T16:06:40.129Z,993.5
2018-02-11T16:16:55.743Z,993.6
2018-02-11T16:27:10.609Z,993.7
2018-02-11T16:37:25.085Z,993.8
2018-02-11T16:47:39.053Z,994
2018-02-11T16:57:54.110Z,994
2018-02-11T17:08:09.314Z,994.2
2018-02-11T17:18:23.296Z,994.4
2018-02-11T17:28:37.003Z,994.5
2018-02-11T17:38:51.110Z,994.6
2018-02-11T17:49:06.551Z,994.7
2018-02-11T17:59:19.912Z,994.9
2018-02-11T18:09:34.959Z,994.9
2018-02-11T18:19:49.243Z,994.9
2018-02-11T18:30:03.081Z,995
2018-02-11T18:40:17.733Z,995.2
2018-02-11T18:50:31.722Z,995.3
2018-02-11T19:00:45.466Z,995.5
2018-02-11T19:10:59.257Z,995.5
2018-02-11T19:21:13.448Z,995.7
2018-02-11T19:31:27.789Z,995.8
2018-02-11T19:41:42.918Z,995.8
2018-02-11T19:51:57.357Z,995.9
2018-02-11T20:02:11.486Z,995.9
2018-02-11T20:12:26.292Z,996
2018-02-11T20:22:40.125Z,996.1
2018-02-11T20:32:54.743Z,996.2
2018-02-11T20:43:08.666Z,996.3
2018-02-11T20:53:23.901Z,996.5
2018-02-11T21:03:38.746Z,996.5
2018-02-11T21:13:52.390Z,996.6
2018-02-11T21:24:07.176Z,996.6
2018-02-11T21:34:21.263Z,996.8
2018-02-11T21:44:35.030Z,996.9
2018-02-11T21:54:50.059Z,997
2018-02-11T22:05:05.331Z,997.1
2018-02-11T22:15:20.016Z,997.1
2018-02-11T22:25:35.085Z,997.2
2018-02-11T22:35:50.963Z,997.4
2018-02-11T22:46:05.664Z,997.4
2018-02-11T22:56:19.950Z,997.6
2018-02-11T23:06:34.023Z,997.6
2018-02-11T23:16:49.164Z,997.6
2018-02-11T23:27:04.068Z,997.6
2018-02-11T23:37:19.263Z,997.6
2018-02-11T23:47:34.861Z,997.7
2018-02-11T23:57:48.594Z,997.8
